AirNav   Air Wisconsin Up To $57,000 Bonus
 
 902 users online  

62ND Morten Airport
Larimore, North Dakota, USA

GOING TO LARIMORE?


FAA INFORMATION EFFECTIVE 03 NOVEMBER 2022

Location

FAA Identifier: 62ND
Lat/Long: 47-46-44.9660N 097-45-34.3150W
47-46.749433N 097-45.571917W
47.7791572,-97.7595319
(estimated)
Elevation: 1340 ft. / 408 m (estimated)
Variation: 07E (1985)
From city: 10 miles SW of LARIMORE, ND
Time zone: UTC -6 (UTC -5 during Daylight Saving Time)
Zip code: 58267

Airport Operations

Airport use: Private use. Permission required prior to landing
Activation date: 04/1981
Control tower: no
ARTCC: MINNEAPOLIS CENTER
FSS: GRAND FORKS FLIGHT SERVICE STATION
Attendance: UNATNDD
Wind indicator: no
Segmented circle: no

Nearby radio navigation aids

VOR radial/distance  VOR name  Freq  Var
GFKr236/25.4GRAND FORKS VOR/DME114.3009E

Airport Services

Runway Information

Runway 17/35

Dimensions: 2600 x 100 ft. / 792 x 30 m
Surface: turf
RUNWAY 17  RUNWAY 35
Traffic pattern: leftleft
Obstructions: noneroad, 50 ft. from runway

Runway 8/26

Dimensions: 1700 x 80 ft. / 518 x 24 m
Surface: turf
RUNWAY 8  RUNWAY 26
Traffic pattern: leftleft
Obstructions: noneroad, 50 ft. from runway

Airport Ownership and Management from official FAA records

Ownership: Privately-owned
Owner: JOHN E MORTEN
BOX 513
LARIMORE, ND 58251
Phone 701-343-2065
Manager: JOHN E MORTEN
BOX 513
LARIMORE, ND 58251
Phone 701-343-2065

Airport Operational Statistics

Aircraft based on the field: 1
Single engine airplanes: 1
    

Additional Remarks

FOR CD CTC MINNEAPOLIS ARTCC AT 651-463-5588.

Instrument Procedures

There are no published instrument procedures at 62ND.

Some nearby airports with instrument procedures:

4V4 - Northwood Municipal Airport-Vince Field (8 nm SE)
KRDR - Grand Forks Air Force Base (18 nm NE)
S32 - Cooperstown Municipal Airport (26 nm SW)
KGFK - Grand Forks International Airport (26 nm NE)
5L0 - Lakota Municipal Airport (27 nm NW)
 
Loc | Ops | Rwys | IFR | FBO | Links
Com | Nav | Svcs | Stats | Notes

Bismarck Aero Center
AirBoss

 
Area around 62ND (Morten Airport)
 
Road maps at: MapQuest Bing Google
 
Aerial photo
No photo
 
Sectional chart

 
Airport distance calculator
Flying to Morten Airport? Find the distance to fly.

From to 62ND

Sunrise and sunset
Times for 30-Nov-2022
 Local
(UTC-6)
 Zulu
(UTC)
Morning civil twilight07:2413:24
Sunrise07:5913:59
Sunset16:4122:41
Evening civil twilight17:1623:16

Current date and time
Zulu (UTC)  30-Nov-2022 13:05:28
Local (UTC-6)  30-Nov-2022 07:05:28
 
METAR
KRDR 
18nm NE 
301255Z AUTO 31017G22KT 10SM FEW017 M14/M19 A2999 RMK AO2 SLP180 T11451188 $
KGFK 
25nm NE 
301253Z 31016G26KT 10SM FEW050 M14/M18 A2999 RMK AO2 PK WND 32028/1154 SLP175 T11391183
KS32 
26nm SW 
301255Z AUTO 31024G32KT 10SM FEW013 M15/M17 A3000 RMK AO2 TSNO
TAF
KRDR 
18nm NE 
301000Z 3010/0116 30015G25KT 9999 BKN030 620308 QNH2990INS BECMG 3015/3016 30015G25KT 9999 SCT050 QNH3008INS BECMG 3021/3022 30012G18KT 9999 FEW030 QNH3017INS BECMG 3023/3024 VRB06KT 9999 FEW150 QNH2985INS TXM07/0110Z TNM16/0103Z
NOTAMs
Click for the latest NOTAMs
NOTAMs are issued by the DoD/FAA and will open in a separate window not controlled by AirNav.

 

 
 

Would you like to see your business listed on this page?

 If your business provides an interesting product or service to pilots, flight crews, aircraft, or users of the Morten Airport, you should consider listing it here.  To start the listing process, click on the button below
 
Add a business
 

Other Pages about Morten Airport

Update a link
 
Copyright © AirNav, LLC. All rights reserved. Privacy Policy  Contact